sensor_id;sensor_type;location;lat;lon;timestamp;pressure;altitude;pressure_sealevel;temperature;humidity
71476;BME280;59286;59.274;17.974;2023-01-27T00:01:01;102394.47;;;-1.97;86.23
71476;BME280;59286;59.274;17.974;2023-01-27T00:03:27;102395.94;;;-1.94;86.02
71476;BME280;59286;59.274;17.974;2023-01-27T00:05:52;102401.34;;;-1.89;85.45
71476;BME280;59286;59.274;17.974;2023-01-27T00:08:18;102392.56;;;-1.95;85.82
71476;BME280;59286;59.274;17.974;2023-01-27T00:10:44;102401.34;;;-1.89;85.78
71476;BME280;59286;59.274;17.974;2023-01-27T00:13:13;102411.28;;;-1.86;85.51
71476;BME280;59286;59.274;17.974;2023-01-27T00:15:51;102409.88;;;-1.89;85.71
71476;BME280;59286;59.274;17.974;2023-01-27T00:18:17;102400.72;;;-1.91;85.57
71476;BME280;59286;59.274;17.974;2023-01-27T00:20:42;102409.06;;;-1.89;85.37
71476;BME280;59286;59.274;17.974;2023-01-27T00:23:26;102411.63;;;-1.89;85.61
71476;BME280;59286;59.274;17.974;2023-01-27T00:26:13;102416.78;;;-1.89;85.79
71476;BME280;59286;59.274;17.974;2023-01-27T00:28:39;102414.09;;;-1.96;85.72
71476;BME280;59286;59.274;17.974;2023-01-27T00:31:06;102411.53;;;-1.96;86.15
71476;BME280;59286;59.274;17.974;2023-01-27T00:33:50;102403.34;;;-2.00;85.68
71476;BME280;59286;59.274;17.974;2023-01-27T00:36:17;102415.31;;;-1.92;85.76
71476;BME280;59286;59.274;17.974;2023-01-27T00:38:43;102415.50;;;-1.93;85.84
71476;BME280;59286;59.274;17.974;2023-01-27T00:41:08;102425.91;;;-1.87;85.39
71476;BME280;59286;59.274;17.974;2023-01-27T00:43:43;102429.44;;;-1.88;85.78
71476;BME280;59286;59.274;17.974;2023-01-27T00:46:09;102419.38;;;-1.98;85.73
71476;BME280;59286;59.274;17.974;2023-01-27T00:48:34;102429.31;;;-1.94;85.99
71476;BME280;59286;59.274;17.974;2023-01-27T00:51:00;102431.72;;;-1.93;85.76
71476;BME280;59286;59.274;17.974;2023-01-27T00:53:26;102434.28;;;-1.93;85.74
71476;BME280;59286;59.274;17.974;2023-01-27T00:55:52;102431.72;;;-1.93;85.74
71476;BME280;59286;59.274;17.974;2023-01-27T00:58:18;102435.41;;;-1.96;85.69
71476;BME280;59286;59.274;17.974;2023-01-27T01:00:43;102420.34;;;-1.99;86.40
71476;BME280;59286;59.274;17.974;2023-01-27T01:03:10;102421.34;;;-2.00;86.01
71476;BME280;59286;59.274;17.974;2023-01-27T01:05:36;102411.06;;;-2.00;85.80
71476;BME280;59286;59.274;17.974;2023-01-27T01:08:01;102426.47;;;-2.00;86.16
71476;BME280;59286;59.274;17.974;2023-01-27T01:10:27;102426.47;;;-2.00;86.16
71476;BME280;59286;59.274;17.974;2023-01-27T01:12:52;102416.03;;;-2.06;86.13
71476;BME280;59286;59.274;17.974;2023-01-27T01:15:17;102418.78;;;-2.08;86.70
71476;BME280;59286;59.274;17.974;2023-01-27T01:17:43;102423.91;;;-2.08;86.57
71476;BME280;59286;59.274;17.974;2023-01-27T01:20:09;102417.16;;;-2.09;86.34
71476;BME280;59286;59.274;17.974;2023-01-27T01:22:34;102410.44;;;-2.10;85.88
71476;BME280;59286;59.274;17.974;2023-01-27T01:24:59;102403.22;;;-2.14;86.44
71476;BME280;59286;59.274;17.974;2023-01-27T01:27:25;102402.91;;;-2.11;86.52
71476;BME280;59286;59.274;17.974;2023-01-27T01:29:51;102405.75;;;-2.06;86.15
71476;BME280;59286;59.274;17.974;2023-01-27T01:32:16;102398.22;;;-2.08;86.37
71476;BME280;59286;59.274;17.974;2023-01-27T01:34:42;102399.81;;;-2.07;86.64
71476;BME280;59286;59.274;17.974;2023-01-27T01:37:07;102404.31;;;-2.09;86.16
71476;BME280;59286;59.274;17.974;2023-01-27T01:39:32;102400.50;;;-2.13;85.75
71476;BME280;59286;59.274;17.974;2023-01-27T01:41:58;102389.91;;;-2.18;86.09
71476;BME280;59286;59.274;17.974;2023-01-27T01:44:25;102413.97;;;-2.11;86.57
71476;BME280;59286;59.274;17.974;2023-01-27T01:46:50;102409.81;;;-2.12;85.81
71476;BME280;59286;59.274;17.974;2023-01-27T01:49:17;102419.78;;;-2.17;86.34
71476;BME280;59286;59.274;17.974;2023-01-27T01:51:47;102420.44;;;-2.23;86.47
71476;BME280;59286;59.274;17.974;2023-01-27T01:54:17;102418.53;;;-2.37;86.89
71476;BME280;59286;59.274;17.974;2023-01-27T01:56:46;102420.16;;;-2.36;86.16
71476;BME280;59286;59.274;17.974;2023-01-27T01:59:16;102406.03;;;-2.48;86.37
71476;BME280;59286;59.274;17.974;2023-01-27T02:01:43;102413.44;;;-2.53;87.53
71476;BME280;59286;59.274;17.974;2023-01-27T02:04:15;102402.38;;;-2.53;87.86
71476;BME280;59286;59.274;17.974;2023-01-27T02:06:49;102403.81;;;-2.51;87.59
71476;BME280;59286;59.274;17.974;2023-01-27T02:09:18;102403.84;;;-2.59;87.79
71476;BME280;59286;59.274;17.974;2023-01-27T02:11:44;102412.50;;;-2.60;87.95
71476;BME280;59286;59.274;17.974;2023-01-27T02:14:10;102418.94;;;-2.64;87.67
71476;BME280;59286;59.274;17.974;2023-01-27T02:16:37;102409.00;;;-2.67;87.65
71476;BME280;59286;59.274;17.974;2023-01-27T02:19:04;102422.47;;;-2.65;88.13
71476;BME280;59286;59.274;17.974;2023-01-27T02:21:29;102419.56;;;-2.70;88.01
71476;BME280;59286;59.274;17.974;2023-01-27T02:24:02;102418.94;;;-2.72;87.70
71476;BME280;59286;59.274;17.974;2023-01-27T02:26:39;102425.97;;;-2.74;87.56
71476;BME280;59286;59.274;17.974;2023-01-27T02:29:08;102426.78;;;-2.73;88.61
71476;BME280;59286;59.274;17.974;2023-01-27T02:31:34;102433.53;;;-2.72;88.56
71476;BME280;59286;59.274;17.974;2023-01-27T02:34:04;102437.38;;;-2.76;88.46
71476;BME280;59286;59.274;17.974;2023-01-27T02:36:33;102447.47;;;-2.75;88.54
71476;BME280;59286;59.274;17.974;2023-01-27T02:39:00;102437.84;;;-2.81;88.61
71476;BME280;59286;59.274;17.974;2023-01-27T02:41:40;102442.81;;;-2.79;88.28
71476;BME280;59286;59.274;17.974;2023-01-27T02:44:07;102451.97;;;-2.77;88.03
71476;BME280;59286;59.274;17.974;2023-01-27T02:46:34;102439.78;;;-2.83;88.09
71476;BME280;59286;59.274;17.974;2023-01-27T02:49:00;102456.16;;;-2.84;88.12
71476;BME280;59286;59.274;17.974;2023-01-27T02:51:26;102455.66;;;-2.87;87.80
71476;BME280;59286;59.274;17.974;2023-01-27T02:53:51;102448.78;;;-2.95;88.02
71476;BME280;59286;59.274;17.974;2023-01-27T02:56:17;102444.91;;;-2.99;88.22
71476;BME280;59286;59.274;17.974;2023-01-27T02:58:42;102453.91;;;-2.95;88.35
71476;BME280;59286;59.274;17.974;2023-01-27T03:01:07;102455.81;;;-2.97;88.32
71476;BME280;59286;59.274;17.974;2023-01-27T03:03:33;102444.59;;;-3.04;88.24
71476;BME280;59286;59.274;17.974;2023-01-27T03:05:58;102448.28;;;-3.07;89.04
71476;BME280;59286;59.274;17.974;2023-01-27T03:08:24;102442.84;;;-3.12;89.94
71476;BME280;59286;59.274;17.974;2023-01-27T03:10:51;102442.03;;;-3.04;89.49
71476;BME280;59286;59.274;17.974;2023-01-27T03:13:23;102451.97;;;-3.01;89.19
71476;BME280;59286;59.274;17.974;2023-01-27T03:15:49;102450.34;;;-3.02;89.41
71476;BME280;59286;59.274;17.974;2023-01-27T03:18:34;102456.13;;;-3.00;88.51
71476;BME280;59286;59.274;17.974;2023-01-27T03:21:02;102447.81;;;-3.10;89.18
71476;BME280;59286;59.274;17.974;2023-01-27T03:23:28;102456.63;;;-3.05;88.67
71476;BME280;59286;59.274;17.974;2023-01-27T03:25:54;102460.28;;;-3.07;88.96
71476;BME280;59286;59.274;17.974;2023-01-27T03:28:19;102460.91;;;-3.13;88.95
71476;BME280;59286;59.274;17.974;2023-01-27T03:30:44;102460.59;;;-3.18;89.45
71476;BME280;59286;59.274;17.974;2023-01-27T03:33:10;102459.00;;;-3.19;89.31
71476;BME280;59286;59.274;17.974;2023-01-27T03:35:36;102455.63;;;-3.20;89.13
71476;BME280;59286;59.274;17.974;2023-01-27T03:38:13;102459.97;;;-3.12;89.95
71476;BME280;59286;59.274;17.974;2023-01-27T03:40:57;102448.44;;;-3.08;89.56
71476;BME280;59286;59.274;17.974;2023-01-27T03:43:41;102441.38;;;-3.14;89.67
71476;BME280;59286;59.274;17.974;2023-01-27T03:46:25;102442.97;;;-3.13;89.33
71476;BME280;59286;59.274;17.974;2023-01-27T03:48:52;102443.47;;;-3.18;88.80
71476;BME280;59286;59.274;17.974;2023-01-27T03:51:20;102452.28;;;-3.12;89.77
71476;BME280;59286;59.274;17.974;2023-01-27T03:53:46;102450.38;;;-3.10;89.21
71476;BME280;59286;59.274;17.974;2023-01-27T03:56:12;102457.09;;;-3.17;89.89
71476;BME280;59286;59.274;17.974;2023-01-27T03:58:38;102444.91;;;-3.23;89.88
71476;BME280;59286;59.274;17.974;2023-01-27T04:01:16;102424.50;;;-3.41;89.35
71476;BME280;59286;59.274;17.974;2023-01-27T04:03:42;102456.09;;;-3.32;89.30
71476;BME280;59286;59.274;17.974;2023-01-27T04:06:31;102451.91;;;-3.33;89.10
71476;BME280;59286;59.274;17.974;2023-01-27T04:09:29;102457.22;;;-3.35;88.85
71476;BME280;59286;59.274;17.974;2023-01-27T04:11:56;102453.53;;;-3.40;88.91
71476;BME280;59286;59.274;17.974;2023-01-27T04:14:30;102462.78;;;-3.47;89.89
71476;BME280;59286;59.274;17.974;2023-01-27T04:17:10;102470.44;;;-3.55;90.76
71476;BME280;59286;59.274;17.974;2023-01-27T04:19:37;102459.06;;;-3.61;89.77
71476;BME280;59286;59.274;17.974;2023-01-27T04:22:03;102464.69;;;-3.57;89.60
71476;BME280;59286;59.274;17.974;2023-01-27T04:24:28;102477.31;;;-3.56;89.31
71476;BME280;59286;59.274;17.974;2023-01-27T04:27:06;102468.00;;;-3.65;89.30
71476;BME280;59286;59.274;17.974;2023-01-27T04:29:33;102478.91;;;-3.63;88.85
71476;BME280;59286;59.274;17.974;2023-01-27T04:31:59;102481.44;;;-3.71;89.33
71476;BME280;59286;59.274;17.974;2023-01-27T04:34:25;102473.41;;;-3.76;89.67
71476;BME280;59286;59.274;17.974;2023-01-27T04:36:52;102484.66;;;-3.69;89.52
71476;BME280;59286;59.274;17.974;2023-01-27T04:39:17;102492.50;;;-3.70;90.31
71476;BME280;59286;59.274;17.974;2023-01-27T04:41:43;102483.22;;;-3.71;90.97
71476;BME280;59286;59.274;17.974;2023-01-27T04:44:10;102475.50;;;-3.79;91.55
71476;BME280;59286;59.274;17.974;2023-01-27T04:46:36;102473.75;;;-3.79;91.17
71476;BME280;59286;59.274;17.974;2023-01-27T04:49:02;102482.06;;;-3.77;91.41
71476;BME280;59286;59.274;17.974;2023-01-27T04:51:27;102480.00;;;-3.73;90.94
71476;BME280;59286;59.274;17.974;2023-01-27T04:53:53;102479.84;;;-3.72;90.58
71476;BME280;59286;59.274;17.974;2023-01-27T04:56:28;102474.72;;;-3.72;90.65
71476;BME280;59286;59.274;17.974;2023-01-27T04:58:57;102481.59;;;-3.72;90.62
71476;BME280;59286;59.274;17.974;2023-01-27T05:01:23;102484.66;;;-3.69;90.91
71476;BME280;59286;59.274;17.974;2023-01-27T05:03:48;102485.47;;;-3.68;90.99
71476;BME280;59286;59.274;17.974;2023-01-27T05:06:14;102484.53;;;-3.67;91.66
71476;BME280;59286;59.274;17.974;2023-01-27T05:08:39;102484.34;;;-3.66;91.41
71476;BME280;59286;59.274;17.974;2023-01-27T05:11:05;102487.97;;;-3.76;91.74
71476;BME280;59286;59.274;17.974;2023-01-27T05:13:30;102491.84;;;-3.72;92.33
71476;BME280;59286;59.274;17.974;2023-01-27T05:18:34;102491.19;;;-3.74;91.75
71476;BME280;59286;59.274;17.974;2023-01-27T05:21:00;102503.38;;;-3.68;91.00
71476;BME280;59286;59.274;17.974;2023-01-27T05:23:26;102509.50;;;-3.69;91.37
71476;BME280;59286;59.274;17.974;2023-01-27T05:28:32;102503.06;;;-3.73;90.96
71476;BME280;59286;59.274;17.974;2023-01-27T05:31:09;102503.22;;;-3.75;91.34
71476;BME280;59286;59.274;17.974;2023-01-27T05:33:35;102500.13;;;-3.78;91.51
71476;BME280;59286;59.274;17.974;2023-01-27T05:36:03;102503.66;;;-3.79;91.40
71476;BME280;59286;59.274;17.974;2023-01-27T05:38:29;102493.56;;;-3.81;91.28
71476;BME280;59286;59.274;17.974;2023-01-27T05:40:59;102496.63;;;-3.77;91.22
71476;BME280;59286;59.274;17.974;2023-01-27T05:43:29;102490.81;;;-3.87;91.35
71476;BME280;59286;59.274;17.974;2023-01-27T05:46:03;102499.75;;;-3.92;91.96
71476;BME280;59286;59.274;17.974;2023-01-27T05:48:29;102511.31;;;-3.87;91.90
71476;BME280;59286;59.274;17.974;2023-01-27T05:50:56;102491.44;;;-3.93;91.67
71476;BME280;59286;59.274;17.974;2023-01-27T05:53:22;102513.56;;;-3.84;91.73
71476;BME280;59286;59.274;17.974;2023-01-27T05:55:48;102514.84;;;-3.88;90.88
71476;BME280;59286;59.274;17.974;2023-01-27T05:58:14;102514.34;;;-3.92;90.41
71476;BME280;59286;59.274;17.974;2023-01-27T06:00:39;102504.69;;;-3.98;89.02
71476;BME280;59286;59.274;17.974;2023-01-27T06:03:04;102507.19;;;-4.06;89.71
71476;BME280;59286;59.274;17.974;2023-01-27T06:05:30;102518.09;;;-4.04;90.25
71476;BME280;59286;59.274;17.974;2023-01-27T06:07:55;102508.41;;;-4.18;90.13
71476;BME280;59286;59.274;17.974;2023-01-27T06:10:20;102507.13;;;-4.22;89.69
71476;BME280;59286;59.274;17.974;2023-01-27T06:12:46;102507.94;;;-4.22;89.93
71476;BME280;59286;59.274;17.974;2023-01-27T06:15:11;102512.81;;;-4.28;90.61
71476;BME280;59286;59.274;17.974;2023-01-27T06:17:36;102521.66;;;-4.23;91.30
71476;BME280;59286;59.274;17.974;2023-01-27T06:20:02;102515.88;;;-4.25;91.78
71476;BME280;59286;59.274;17.974;2023-01-27T06:22:27;102526.94;;;-4.24;91.64
71476;BME280;59286;59.274;17.974;2023-01-27T06:24:52;102518.09;;;-4.30;90.84
71476;BME280;59286;59.274;17.974;2023-01-27T06:27:18;102521.31;;;-4.28;90.65
71476;BME280;59286;59.274;17.974;2023-01-27T06:29:43;102512.63;;;-4.35;91.32
71476;BME280;59286;59.274;17.974;2023-01-27T06:32:09;102519.03;;;-4.31;90.91
71476;BME280;59286;59.274;17.974;2023-01-27T06:34:34;102511.50;;;-4.32;91.24
71476;BME280;59286;59.274;17.974;2023-01-27T06:36:59;102513.41;;;-4.34;91.74
71476;BME280;59286;59.274;17.974;2023-01-27T06:39:24;102519.19;;;-4.32;91.74
71476;BME280;59286;59.274;17.974;2023-01-27T06:41:50;102517.59;;;-4.33;92.45
71476;BME280;59286;59.274;17.974;2023-01-27T06:44:15;102513.72;;;-4.37;92.76
71476;BME280;59286;59.274;17.974;2023-01-27T06:46:40;102521.31;;;-4.28;92.09
71476;BME280;59286;59.274;17.974;2023-01-27T06:49:06;102530.25;;;-4.32;92.29
71476;BME280;59286;59.274;17.974;2023-01-27T06:51:31;102534.25;;;-4.29;91.53
71476;BME280;59286;59.274;17.974;2023-01-27T06:53:56;102536.00;;;-4.30;90.99
71476;BME280;59286;59.274;17.974;2023-01-27T06:56:22;102535.69;;;-4.27;90.81
71476;BME280;59286;59.274;17.974;2023-01-27T06:58:47;102534.13;;;-4.28;90.01
71476;BME280;59286;59.274;17.974;2023-01-27T07:01:12;102537.75;;;-4.30;89.53
71476;BME280;59286;59.274;17.974;2023-01-27T07:03:38;102534.69;;;-4.34;89.80
71476;BME280;59286;59.274;17.974;2023-01-27T07:06:03;102532.94;;;-4.33;90.95
71476;BME280;59286;59.274;17.974;2023-01-27T07:08:29;102535.34;;;-4.32;90.73
71476;BME280;59286;59.274;17.974;2023-01-27T07:10:54;102540.81;;;-4.27;90.66
71476;BME280;59286;59.274;17.974;2023-01-27T07:13:19;102553.78;;;-4.28;91.44
71476;BME280;59286;59.274;17.974;2023-01-27T07:15:44;102545.28;;;-4.29;92.20
71476;BME280;59286;59.274;17.974;2023-01-27T07:18:11;102550.47;;;-4.21;91.26
71476;BME280;59286;59.274;17.974;2023-01-27T07:20:38;102551.78;;;-4.17;90.74
71476;BME280;59286;59.274;17.974;2023-01-27T07:23:04;102557.84;;;-4.18;90.96
71476;BME280;59286;59.274;17.974;2023-01-27T07:25:31;102550.47;;;-4.21;89.74
71476;BME280;59286;59.274;17.974;2023-01-27T07:27:58;102553.38;;;-4.16;89.30
71476;BME280;59286;59.274;17.974;2023-01-27T07:30:24;102560.13;;;-4.15;89.39
71476;BME280;59286;59.274;17.974;2023-01-27T07:32:49;102553.34;;;-4.24;89.61
71476;BME280;59286;59.274;17.974;2023-01-27T07:35:16;102556.09;;;-4.17;89.40
71476;BME280;59286;59.274;17.974;2023-01-27T07:37:42;102546.97;;;-4.20;89.26
71476;BME280;59286;59.274;17.974;2023-01-27T07:40:08;102552.72;;;-4.18;89.95
71476;BME280;59286;59.274;17.974;2023-01-27T07:42:34;102558.88;;;-4.11;89.48
71476;BME280;59286;59.274;17.974;2023-01-27T07:44:59;102571.16;;;-4.14;90.07
71476;BME280;59286;59.274;17.974;2023-01-27T07:47:24;102548.25;;;-4.16;90.04
71476;BME280;59286;59.274;17.974;2023-01-27T07:49:49;102554.75;;;-4.04;89.59
71476;BME280;59286;59.274;17.974;2023-01-27T07:52:15;102556.22;;;-4.01;90.39
71476;BME280;59286;59.274;17.974;2023-01-27T07:54:40;102559.63;;;-3.92;90.72
71476;BME280;59286;59.274;17.974;2023-01-27T07:57:05;102559.94;;;-3.96;90.30
71476;BME280;59286;59.274;17.974;2023-01-27T07:59:31;102555.91;;;-3.98;89.83
71476;BME280;59286;59.274;17.974;2023-01-27T08:01:56;102559.56;;;-4.01;89.90
71476;BME280;59286;59.274;17.974;2023-01-27T08:04:21;102561.03;;;-3.98;89.63
71476;BME280;59286;59.274;17.974;2023-01-27T08:06:47;102546.47;;;-3.98;89.72
71476;BME280;59286;59.274;17.974;2023-01-27T08:09:12;102556.41;;;-3.95;90.23
71476;BME280;59286;59.274;17.974;2023-01-27T08:11:37;102564.97;;;-3.86;89.98
71476;BME280;59286;59.274;17.974;2023-01-27T08:14:03;102555.81;;;-3.88;89.79
71476;BME280;59286;59.274;17.974;2023-01-27T08:16:28;102556.66;;;-3.80;90.69
71476;BME280;59286;59.274;17.974;2023-01-27T08:18:53;102565.31;;;-3.73;90.22
71476;BME280;59286;59.274;17.974;2023-01-27T08:21:19;102562.75;;;-3.73;90.58
71476;BME280;59286;59.274;17.974;2023-01-27T08:23:45;102561.38;;;-3.67;90.31
71476;BME280;59286;59.274;17.974;2023-01-27T08:26:10;102556.38;;;-3.69;90.35
71476;BME280;59286;59.274;17.974;2023-01-27T08:28:37;102565.88;;;-3.61;91.02
71476;BME280;59286;59.274;17.974;2023-01-27T08:31:08;102552.44;;;-3.55;90.99
71476;BME280;59286;59.274;17.974;2023-01-27T08:33:34;102561.78;;;-3.46;90.88
71476;BME280;59286;59.274;17.974;2023-01-27T08:36:05;102559.75;;;-3.35;91.16
71476;BME280;59286;59.274;17.974;2023-01-27T08:38:31;102558.66;;;-3.24;91.38
71476;BME280;59286;59.274;17.974;2023-01-27T08:41:02;102561.25;;;-3.16;91.61
71476;BME280;59286;59.274;17.974;2023-01-27T08:43:27;102552.13;;;-3.11;91.67
71476;BME280;59286;59.274;17.974;2023-01-27T08:45:53;102564.19;;;-2.95;91.59
71476;BME280;59286;59.274;17.974;2023-01-27T08:48:19;102569.31;;;-2.87;91.76
71476;BME280;59286;59.274;17.974;2023-01-27T08:50:47;102560.06;;;-2.80;91.50
71476;BME280;59286;59.274;17.974;2023-01-27T08:53:12;102560.69;;;-2.70;91.69
71476;BME280;59286;59.274;17.974;2023-01-27T08:55:37;102557.50;;;-2.64;91.87
71476;BME280;59286;59.274;17.974;2023-01-27T08:58:03;102547.88;;;-2.54;91.28
71476;BME280;59286;59.274;17.974;2023-01-27T09:00:28;102553.16;;;-2.47;91.60
71476;BME280;59286;59.274;17.974;2023-01-27T09:02:53;102546.41;;;-2.40;91.45
71476;BME280;59286;59.274;17.974;2023-01-27T09:05:19;102549.97;;;-2.33;91.72
71476;BME280;59286;59.274;17.974;2023-01-27T09:07:45;102547.41;;;-2.33;91.65
71476;BME280;59286;59.274;17.974;2023-01-27T09:10:12;102550.44;;;-2.30;91.05
71476;BME280;59286;59.274;17.974;2023-01-27T09:12:37;102554.78;;;-2.22;91.02
71476;BME280;59286;59.274;17.974;2023-01-27T09:15:03;102558.47;;;-2.17;90.52
71476;BME280;59286;59.274;17.974;2023-01-27T09:17:28;102560.06;;;-2.08;90.63
71476;BME280;59286;59.274;17.974;2023-01-27T09:19:54;102555.22;;;-2.03;90.30
71476;BME280;59286;59.274;17.974;2023-01-27T09:22:19;102554.22;;;-1.93;90.27
71476;BME280;59286;59.274;17.974;2023-01-27T09:24:44;102552.94;;;-1.89;89.47
71476;BME280;59286;59.274;17.974;2023-01-27T09:27:10;102548.75;;;-1.82;89.64
71476;BME280;59286;59.274;17.974;2023-01-27T09:29:35;102549.72;;;-1.75;89.69
71476;BME280;59286;59.274;17.974;2023-01-27T09:32:01;102544.22;;;-1.72;89.10
71476;BME280;59286;59.274;17.974;2023-01-27T09:34:27;102543.25;;;-1.71;88.57
71476;BME280;59286;59.274;17.974;2023-01-27T09:36:59;102551.75;;;-1.63;88.76
71476;BME280;59286;59.274;17.974;2023-01-27T09:39:27;102555.72;;;-1.52;89.01
71476;BME280;59286;59.274;17.974;2023-01-27T09:42:06;102550.41;;;-1.51;87.76
71476;BME280;59286;59.274;17.974;2023-01-27T09:53:25;102550.03;;;-1.40;88.99
71476;BME280;59286;59.274;17.974;2023-01-27T09:56:05;102560.50;;;-1.41;88.46
71476;BME280;59286;59.274;17.974;2023-01-27T10:01:56;102552.63;;;-1.40;88.99
71476;BME280;59286;59.274;17.974;2023-01-27T10:18:18;102571.44;;;-1.47;88.34
71476;BME280;59286;59.274;17.974;2023-01-27T10:21:05;102568.25;;;-1.49;88.16
71476;BME280;59286;59.274;17.974;2023-01-27T10:23:47;102560.38;;;-1.48;88.00
71476;BME280;59286;59.274;17.974;2023-01-27T10:26:34;102551.69;;;-1.47;88.03
71476;BME280;59286;59.274;17.974;2023-01-27T10:31:55;102542.84;;;-1.44;88.27
71476;BME280;59286;59.274;17.974;2023-01-27T10:37:25;102551.63;;;-1.31;87.73
71476;BME280;59286;59.274;17.974;2023-01-27T10:40:00;102542.44;;;-1.25;88.50
71476;BME280;59286;59.274;17.974;2023-01-27T10:45:43;102549.78;;;-1.14;88.04
71476;BME280;59286;59.274;17.974;2023-01-27T10:48:28;102544.09;;;-1.10;87.40
71476;BME280;59286;59.274;17.974;2023-01-27T10:51:09;102546.00;;;-1.04;87.37
71476;BME280;59286;59.274;17.974;2023-01-27T10:53:51;102535.22;;;-0.99;87.25
71476;BME280;59286;59.274;17.974;2023-01-27T10:56:38;102536.16;;;-1.00;87.30
71476;BME280;59286;59.274;17.974;2023-01-27T10:59:20;102535.84;;;-0.97;86.74
71476;BME280;59286;59.274;17.974;2023-01-27T11:01:52;102532.25;;;-0.88;86.33
71476;BME280;59286;59.274;17.974;2023-01-27T11:06:56;102528.00;;;-0.81;85.11
71476;BME280;59286;59.274;17.974;2023-01-27T11:09:33;102522.41;;;-0.84;84.12
71476;BME280;59286;59.274;17.974;2023-01-27T11:12:07;102524.97;;;-0.84;84.86
71476;BME280;59286;59.274;17.974;2023-01-27T11:14:44;102534.47;;;-0.85;84.66
71476;BME280;59286;59.274;17.974;2023-01-27T11:17:19;102532.81;;;-0.78;85.52
71476;BME280;59286;59.274;17.974;2023-01-27T11:20:05;102520.69;;;-0.69;85.10
71476;BME280;59286;59.274;17.974;2023-01-27T11:22:47;102511.28;;;-0.62;86.07
71476;BME280;59286;59.274;17.974;2023-01-27T11:25:26;102515.53;;;-0.47;85.75
71476;BME280;59286;59.274;17.974;2023-01-27T11:30:28;102516.06;;;-0.37;85.78
71476;BME280;59286;59.274;17.974;2023-01-27T11:33:27;102505.75;;;-0.37;85.42
71476;BME280;59286;59.274;17.974;2023-01-27T11:35:53;102499.00;;;-0.38;84.77
71476;BME280;59286;59.274;17.974;2023-01-27T11:38:20;102504.25;;;-0.31;84.60
71476;BME280;59286;59.274;17.974;2023-01-27T11:40:47;102500.72;;;-0.30;84.88
71476;BME280;59286;59.274;17.974;2023-01-27T11:43:18;102500.78;;;-0.24;85.30
71476;BME280;59286;59.274;17.974;2023-01-27T11:45:44;102497.25;;;-0.23;84.91
71476;BME280;59286;59.274;17.974;2023-01-27T11:48:15;102504.38;;;-0.25;84.51
71476;BME280;59286;59.274;17.974;2023-01-27T11:50:43;102494.94;;;-0.18;85.38
71476;BME280;59286;59.274;17.974;2023-01-27T11:53:28;102492.56;;;-0.19;84.58
71476;BME280;59286;59.274;17.974;2023-01-27T11:56:08;102486.16;;;-0.23;85.97
71476;BME280;59286;59.274;17.974;2023-01-27T11:58:39;102492.00;;;-0.15;85.33
71476;BME280;59286;59.274;17.974;2023-01-27T12:01:20;102476.91;;;-0.18;85.44
71476;BME280;59286;59.274;17.974;2023-01-27T12:04:08;102482.25;;;-0.19;83.99
71476;BME280;59286;59.274;17.974;2023-01-27T12:06:58;102481.34;;;-0.12;84.88
71476;BME280;59286;59.274;17.974;2023-01-27T12:09:33;102475.28;;;-0.19;84.67
71476;BME280;59286;59.274;17.974;2023-01-27T12:15:06;102469.63;;;-0.14;84.94
71476;BME280;59286;59.274;17.974;2023-01-27T12:17:58;102468.81;;;-0.15;85.01
71476;BME280;59286;59.274;17.974;2023-01-27T12:20:36;102467.56;;;-0.19;85.27
71476;BME280;59286;59.274;17.974;2023-01-27T12:25:52;102475.59;;;-0.14;85.48
71476;BME280;59286;59.274;17.974;2023-01-27T12:28:35;102456.66;;;-0.21;83.84
71476;BME280;59286;59.274;17.974;2023-01-27T12:33:57;102457.72;;;-0.15;84.62
71476;BME280;59286;59.274;17.974;2023-01-27T12:36:23;102453.34;;;-0.15;84.13
71476;BME280;59286;59.274;17.974;2023-01-27T12:38:54;102453.97;;;-0.13;84.83
71476;BME280;59286;59.274;17.974;2023-01-27T12:41:27;102449.81;;;-0.14;84.32
71476;BME280;59286;59.274;17.974;2023-01-27T12:44:15;102465.28;;;-0.14;83.93
71476;BME280;59286;59.274;17.974;2023-01-27T12:46:55;102457.63;;;-0.22;84.21
71476;BME280;59286;59.274;17.974;2023-01-27T12:49:21;102468.38;;;-0.18;83.82
71476;BME280;59286;59.274;17.974;2023-01-27T12:51:53;102467.56;;;-0.19;83.53
71476;BME280;59286;59.274;17.974;2023-01-27T12:54:24;102463.22;;;-0.18;81.57
71476;BME280;59286;59.274;17.974;2023-01-27T12:56:53;102460.81;;;-0.20;81.45
71476;BME280;59286;59.274;17.974;2023-01-27T12:59:21;102458.50;;;-0.15;82.47
71476;BME280;59286;59.274;17.974;2023-01-27T13:02:25;102461.44;;;-0.18;81.48
71476;BME280;59286;59.274;17.974;2023-01-27T13:04:57;102451.66;;;-0.22;81.68
71476;BME280;59286;59.274;17.974;2023-01-27T13:07:28;102446.34;;;-0.21;82.31
71476;BME280;59286;59.274;17.974;2023-01-27T13:09:57;102456.91;;;-0.16;82.45
71476;BME280;59286;59.274;17.974;2023-01-27T13:12:26;102454.53;;;-0.17;81.08
71476;BME280;59286;59.274;17.974;2023-01-27T13:14:57;102440.72;;;-0.24;81.59
71476;BME280;59286;59.274;17.974;2023-01-27T13:17:43;102450.97;;;-0.16;81.36
71476;BME280;59286;59.274;17.974;2023-01-27T13:23:01;102448.47;;;-0.24;81.61
71476;BME280;59286;59.274;17.974;2023-01-27T13:25:35;102445.00;;;-0.31;81.80
71476;BME280;59286;59.274;17.974;2023-01-27T13:28:04;102448.19;;;-0.29;81.87
71476;BME280;59286;59.274;17.974;2023-01-27T13:30:35;102451.47;;;-0.35;82.34
71476;BME280;59286;59.274;17.974;2023-01-27T13:33:24;102436.75;;;-0.41;82.69
71476;BME280;59286;59.274;17.974;2023-01-27T13:36:06;102444.28;;;-0.40;82.62
71476;BME280;59286;59.274;17.974;2023-01-27T13:41:31;102449.44;;;-0.40;82.68
71476;BME280;59286;59.274;17.974;2023-01-27T13:44:02;102451.03;;;-0.39;82.62
71476;BME280;59286;59.274;17.974;2023-01-27T13:46:33;102439.84;;;-0.46;82.20
71476;BME280;59286;59.274;17.974;2023-01-27T13:49:14;102433.44;;;-0.50;82.40
71476;BME280;59286;59.274;17.974;2023-01-27T13:51:40;102450.16;;;-0.46;82.45